sensor_id;sensor_type;location;lat;lon;timestamp;P1;durP1;ratioP1;P2;durP2;ratioP2
7675;SDS011;3880;51.464;-2.566;2022-10-31T00:02:13;39.43;;;5.43;;
7675;SDS011;3880;51.464;-2.566;2022-10-31T00:04:40;24.33;;;5.27;;
7675;SDS011;3880;51.464;-2.566;2022-10-31T00:07:07;27.67;;;6.07;;
7675;SDS011;3880;51.464;-2.566;2022-10-31T00:09:34;25.60;;;4.53;;
7675;SDS011;3880;51.464;-2.566;2022-10-31T00:12:01;26.93;;;5.17;;
7675;SDS011;3880;51.464;-2.566;2022-10-31T00:14:30;25.90;;;5.00;;
7675;SDS011;3880;51.464;-2.566;2022-10-31T00:16:57;32.77;;;5.07;;
7675;SDS011;3880;51.464;-2.566;2022-10-31T00:19:24;22.27;;;5.60;;
7675;SDS011;3880;51.464;-2.566;2022-10-31T00:21:51;26.93;;;5.13;;
7675;SDS011;3880;51.464;-2.566;2022-10-31T00:24:18;31.77;;;5.60;;
7675;SDS011;3880;51.464;-2.566;2022-10-31T00:26:45;20.23;;;4.13;;
7675;SDS011;3880;51.464;-2.566;2022-10-31T00:29:12;28.73;;;5.23;;
7675;SDS011;3880;51.464;-2.566;2022-10-31T00:31:41;33.60;;;6.17;;
7675;SDS011;3880;51.464;-2.566;2022-10-31T00:34:07;20.90;;;4.97;;
7675;SDS011;3880;51.464;-2.566;2022-10-31T00:36:35;33.00;;;4.90;;
7675;SDS011;3880;51.464;-2.566;2022-10-31T00:39:01;18.13;;;4.57;;
7675;SDS011;3880;51.464;-2.566;2022-10-31T00:41:29;22.63;;;4.30;;
7675;SDS011;3880;51.464;-2.566;2022-10-31T00:43:56;17.23;;;3.83;;
7675;SDS011;3880;51.464;-2.566;2022-10-31T00:46:23;30.50;;;4.90;;
7675;SDS011;3880;51.464;-2.566;2022-10-31T00:48:51;23.80;;;4.73;;
7675;SDS011;3880;51.464;-2.566;2022-10-31T00:51:18;24.30;;;5.67;;
7675;SDS011;3880;51.464;-2.566;2022-10-31T00:53:45;20.23;;;3.57;;
7675;SDS011;3880;51.464;-2.566;2022-10-31T00:56:12;20.87;;;4.10;;
7675;SDS011;3880;51.464;-2.566;2022-10-31T00:58:39;20.67;;;5.10;;
7675;SDS011;3880;51.464;-2.566;2022-10-31T01:01:06;19.37;;;5.40;;
7675;SDS011;3880;51.464;-2.566;2022-10-31T01:03:33;20.20;;;5.40;;
7675;SDS011;3880;51.464;-2.566;2022-10-31T01:06:05;23.00;;;4.90;;
7675;SDS011;3880;51.464;-2.566;2022-10-31T01:08:35;26.07;;;4.67;;
7675;SDS011;3880;51.464;-2.566;2022-10-31T01:11:04;21.40;;;4.57;;
7675;SDS011;3880;51.464;-2.566;2022-10-31T01:13:33;24.50;;;5.20;;
7675;SDS011;3880;51.464;-2.566;2022-10-31T01:16:01;18.93;;;5.03;;
7675;SDS011;3880;51.464;-2.566;2022-10-31T01:18:29;22.93;;;4.67;;
7675;SDS011;3880;51.464;-2.566;2022-10-31T01:20:58;22.77;;;3.87;;
7675;SDS011;3880;51.464;-2.566;2022-10-31T01:23:28;19.50;;;5.37;;
7675;SDS011;3880;51.464;-2.566;2022-10-31T01:28:43;25.87;;;5.27;;
7675;SDS011;3880;51.464;-2.566;2022-10-31T01:31:12;15.77;;;3.77;;
7675;SDS011;3880;51.464;-2.566;2022-10-31T01:33:40;17.73;;;3.77;;
7675;SDS011;3880;51.464;-2.566;2022-10-31T01:36:11;16.50;;;4.47;;
7675;SDS011;3880;51.464;-2.566;2022-10-31T01:38:41;28.17;;;5.67;;
7675;SDS011;3880;51.464;-2.566;2022-10-31T01:41:08;23.80;;;5.13;;
7675;SDS011;3880;51.464;-2.566;2022-10-31T01:43:44;20.60;;;4.00;;
7675;SDS011;3880;51.464;-2.566;2022-10-31T01:46:12;19.73;;;3.77;;
7675;SDS011;3880;51.464;-2.566;2022-10-31T01:48:41;16.97;;;4.23;;
7675;SDS011;3880;51.464;-2.566;2022-10-31T01:51:14;16.27;;;3.73;;
7675;SDS011;3880;51.464;-2.566;2022-10-31T01:53:49;16.23;;;3.77;;
7675;SDS011;3880;51.464;-2.566;2022-10-31T01:56:18;25.03;;;4.73;;
7675;SDS011;3880;51.464;-2.566;2022-10-31T01:58:45;17.17;;;4.63;;
7675;SDS011;3880;51.464;-2.566;2022-10-31T02:01:13;16.67;;;2.90;;
7675;SDS011;3880;51.464;-2.566;2022-10-31T02:03:42;21.27;;;4.67;;
7675;SDS011;3880;51.464;-2.566;2022-10-31T02:06:10;17.97;;;4.63;;
7675;SDS011;3880;51.464;-2.566;2022-10-31T02:08:48;17.77;;;5.20;;
7675;SDS011;3880;51.464;-2.566;2022-10-31T02:11:16;14.73;;;3.43;;
7675;SDS011;3880;51.464;-2.566;2022-10-31T02:13:43;16.27;;;3.30;;
7675;SDS011;3880;51.464;-2.566;2022-10-31T02:16:11;32.80;;;5.10;;
7675;SDS011;3880;51.464;-2.566;2022-10-31T02:18:38;17.60;;;3.03;;
7675;SDS011;3880;51.464;-2.566;2022-10-31T02:21:07;14.70;;;3.13;;
7675;SDS011;3880;51.464;-2.566;2022-10-31T02:26:54;22.40;;;4.47;;
7675;SDS011;3880;51.464;-2.566;2022-10-31T02:32:38;21.10;;;6.27;;
7675;SDS011;3880;51.464;-2.566;2022-10-31T02:35:33;13.53;;;3.50;;
7675;SDS011;3880;51.464;-2.566;2022-10-31T02:38:10;20.67;;;3.73;;
7675;SDS011;3880;51.464;-2.566;2022-10-31T02:40:48;16.73;;;3.60;;
7675;SDS011;3880;51.464;-2.566;2022-10-31T02:43:19;18.57;;;4.03;;
7675;SDS011;3880;51.464;-2.566;2022-10-31T02:45:53;23.40;;;5.30;;
7675;SDS011;3880;51.464;-2.566;2022-10-31T02:48:29;14.93;;;3.53;;
7675;SDS011;3880;51.464;-2.566;2022-10-31T02:51:02;21.10;;;4.50;;
7675;SDS011;3880;51.464;-2.566;2022-10-31T02:53:31;23.80;;;3.90;;
7675;SDS011;3880;51.464;-2.566;2022-10-31T02:56:01;19.73;;;4.00;;
7675;SDS011;3880;51.464;-2.566;2022-10-31T02:58:33;36.03;;;6.77;;
7675;SDS011;3880;51.464;-2.566;2022-10-31T03:01:07;18.47;;;5.33;;
7675;SDS011;3880;51.464;-2.566;2022-10-31T03:03:49;22.57;;;4.27;;
7675;SDS011;3880;51.464;-2.566;2022-10-31T03:06:23;22.63;;;4.10;;
7675;SDS011;3880;51.464;-2.566;2022-10-31T03:09:00;31.43;;;4.77;;
7675;SDS011;3880;51.464;-2.566;2022-10-31T03:11:37;26.53;;;5.37;;
7675;SDS011;3880;51.464;-2.566;2022-10-31T03:14:11;23.50;;;4.43;;
7675;SDS011;3880;51.464;-2.566;2022-10-31T03:16:45;19.63;;;4.03;;
7675;SDS011;3880;51.464;-2.566;2022-10-31T03:19:15;18.03;;;3.67;;
7675;SDS011;3880;51.464;-2.566;2022-10-31T03:21:46;23.90;;;4.30;;
7675;SDS011;3880;51.464;-2.566;2022-10-31T03:24:16;23.60;;;4.47;;
7675;SDS011;3880;51.464;-2.566;2022-10-31T03:26:46;16.83;;;3.50;;
7675;SDS011;3880;51.464;-2.566;2022-10-31T03:29:16;29.00;;;4.53;;
7675;SDS011;3880;51.464;-2.566;2022-10-31T03:31:49;24.03;;;3.87;;
7675;SDS011;3880;51.464;-2.566;2022-10-31T03:34:22;28.80;;;4.27;;
7675;SDS011;3880;51.464;-2.566;2022-10-31T03:36:50;17.87;;;4.53;;
7675;SDS011;3880;51.464;-2.566;2022-10-31T03:39:20;16.97;;;4.40;;
7675;SDS011;3880;51.464;-2.566;2022-10-31T03:41:49;20.77;;;4.70;;
7675;SDS011;3880;51.464;-2.566;2022-10-31T03:44:20;27.53;;;4.40;;
7675;SDS011;3880;51.464;-2.566;2022-10-31T03:46:49;23.13;;;4.27;;
7675;SDS011;3880;51.464;-2.566;2022-10-31T03:49:16;21.13;;;3.47;;
7675;SDS011;3880;51.464;-2.566;2022-10-31T03:51:45;26.23;;;5.27;;
7675;SDS011;3880;51.464;-2.566;2022-10-31T03:54:17;25.23;;;5.63;;
7675;SDS011;3880;51.464;-2.566;2022-10-31T03:56:50;19.03;;;4.13;;
7675;SDS011;3880;51.464;-2.566;2022-10-31T03:59:22;18.07;;;3.80;;
7675;SDS011;3880;51.464;-2.566;2022-10-31T04:01:56;28.37;;;4.40;;
7675;SDS011;3880;51.464;-2.566;2022-10-31T04:04:27;31.77;;;6.00;;
7675;SDS011;3880;51.464;-2.566;2022-10-31T04:06:57;26.73;;;4.87;;
7675;SDS011;3880;51.464;-2.566;2022-10-31T04:09:26;23.23;;;3.70;;
7675;SDS011;3880;51.464;-2.566;2022-10-31T04:11:56;27.20;;;4.17;;
7675;SDS011;3880;51.464;-2.566;2022-10-31T04:14:25;22.40;;;4.67;;
7675;SDS011;3880;51.464;-2.566;2022-10-31T04:16:54;27.67;;;4.50;;
7675;SDS011;3880;51.464;-2.566;2022-10-31T04:19:21;19.73;;;4.40;;
7675;SDS011;3880;51.464;-2.566;2022-10-31T04:21:48;32.37;;;5.03;;
7675;SDS011;3880;51.464;-2.566;2022-10-31T04:24:16;18.60;;;4.17;;
7675;SDS011;3880;51.464;-2.566;2022-10-31T04:26:44;25.50;;;4.57;;
7675;SDS011;3880;51.464;-2.566;2022-10-31T04:29:12;26.80;;;5.50;;
7675;SDS011;3880;51.464;-2.566;2022-10-31T04:31:41;30.57;;;4.70;;
7675;SDS011;3880;51.464;-2.566;2022-10-31T04:34:08;23.47;;;3.43;;
7675;SDS011;3880;51.464;-2.566;2022-10-31T04:36:34;23.30;;;5.17;;
7675;SDS011;3880;51.464;-2.566;2022-10-31T04:39:01;18.33;;;4.43;;
7675;SDS011;3880;51.464;-2.566;2022-10-31T04:41:30;24.47;;;4.77;;
7675;SDS011;3880;51.464;-2.566;2022-10-31T04:43:57;18.47;;;3.43;;
7675;SDS011;3880;51.464;-2.566;2022-10-31T04:46:24;11.40;;;3.53;;
7675;SDS011;3880;51.464;-2.566;2022-10-31T04:48:51;21.70;;;4.20;;
7675;SDS011;3880;51.464;-2.566;2022-10-31T04:51:18;23.20;;;4.83;;
7675;SDS011;3880;51.464;-2.566;2022-10-31T04:53:45;19.90;;;3.77;;
7675;SDS011;3880;51.464;-2.566;2022-10-31T04:56:12;30.53;;;4.63;;
7675;SDS011;3880;51.464;-2.566;2022-10-31T04:58:40;28.30;;;6.53;;
7675;SDS011;3880;51.464;-2.566;2022-10-31T05:01:07;26.13;;;4.60;;
7675;SDS011;3880;51.464;-2.566;2022-10-31T05:03:34;31.37;;;5.47;;
7675;SDS011;3880;51.464;-2.566;2022-10-31T05:06:04;15.27;;;3.50;;
7675;SDS011;3880;51.464;-2.566;2022-10-31T05:08:32;16.30;;;4.00;;
7675;SDS011;3880;51.464;-2.566;2022-10-31T05:10:59;22.97;;;4.93;;
7675;SDS011;3880;51.464;-2.566;2022-10-31T05:13:27;23.70;;;3.70;;
7675;SDS011;3880;51.464;-2.566;2022-10-31T05:15:56;21.17;;;4.93;;
7675;SDS011;3880;51.464;-2.566;2022-10-31T05:18:23;20.83;;;4.33;;
7675;SDS011;3880;51.464;-2.566;2022-10-31T05:20:50;21.93;;;3.40;;
7675;SDS011;3880;51.464;-2.566;2022-10-31T05:23:17;20.63;;;4.23;;
7675;SDS011;3880;51.464;-2.566;2022-10-31T05:25:45;19.50;;;4.20;;
7675;SDS011;3880;51.464;-2.566;2022-10-31T05:28:12;12.10;;;4.23;;
7675;SDS011;3880;51.464;-2.566;2022-10-31T05:30:39;23.80;;;4.70;;
7675;SDS011;3880;51.464;-2.566;2022-10-31T05:33:07;17.17;;;4.77;;
7675;SDS011;3880;51.464;-2.566;2022-10-31T05:35:34;15.03;;;3.40;;
7675;SDS011;3880;51.464;-2.566;2022-10-31T05:38:01;19.97;;;4.17;;
7675;SDS011;3880;51.464;-2.566;2022-10-31T05:40:28;21.73;;;3.93;;
7675;SDS011;3880;51.464;-2.566;2022-10-31T05:42:56;32.30;;;4.27;;
7675;SDS011;3880;51.464;-2.566;2022-10-31T05:45:23;26.63;;;6.23;;
7675;SDS011;3880;51.464;-2.566;2022-10-31T05:47:51;39.70;;;5.97;;
7675;SDS011;3880;51.464;-2.566;2022-10-31T05:50:20;22.87;;;4.13;;
7675;SDS011;3880;51.464;-2.566;2022-10-31T05:52:53;23.93;;;4.07;;
7675;SDS011;3880;51.464;-2.566;2022-10-31T05:55:21;21.87;;;3.67;;
7675;SDS011;3880;51.464;-2.566;2022-10-31T05:57:48;29.97;;;4.47;;
7675;SDS011;3880;51.464;-2.566;2022-10-31T06:00:15;23.03;;;3.77;;
7675;SDS011;3880;51.464;-2.566;2022-10-31T06:02:43;18.63;;;4.07;;
7675;SDS011;3880;51.464;-2.566;2022-10-31T06:05:10;14.00;;;3.80;;
7675;SDS011;3880;51.464;-2.566;2022-10-31T06:07:39;20.70;;;4.80;;
7675;SDS011;3880;51.464;-2.566;2022-10-31T06:10:07;16.00;;;4.30;;
7675;SDS011;3880;51.464;-2.566;2022-10-31T06:12:35;27.17;;;4.73;;
7675;SDS011;3880;51.464;-2.566;2022-10-31T06:15:06;19.60;;;4.40;;
7675;SDS011;3880;51.464;-2.566;2022-10-31T06:17:34;20.70;;;3.83;;
7675;SDS011;3880;51.464;-2.566;2022-10-31T06:20:01;16.70;;;3.50;;
7675;SDS011;3880;51.464;-2.566;2022-10-31T06:22:29;23.57;;;4.20;;
7675;SDS011;3880;51.464;-2.566;2022-10-31T06:24:57;16.93;;;4.30;;
7675;SDS011;3880;51.464;-2.566;2022-10-31T06:27:24;22.50;;;4.50;;
7675;SDS011;3880;51.464;-2.566;2022-10-31T06:29:51;21.63;;;4.70;;
7675;SDS011;3880;51.464;-2.566;2022-10-31T06:32:18;19.13;;;3.70;;
7675;SDS011;3880;51.464;-2.566;2022-10-31T06:34:45;25.87;;;5.73;;
7675;SDS011;3880;51.464;-2.566;2022-10-31T06:37:14;19.77;;;5.07;;
7675;SDS011;3880;51.464;-2.566;2022-10-31T06:39:41;23.40;;;4.50;;
7675;SDS011;3880;51.464;-2.566;2022-10-31T06:42:10;16.67;;;3.90;;
7675;SDS011;3880;51.464;-2.566;2022-10-31T06:44:37;17.30;;;4.43;;
7675;SDS011;3880;51.464;-2.566;2022-10-31T06:47:05;20.37;;;4.00;;
7675;SDS011;3880;51.464;-2.566;2022-10-31T06:49:32;17.27;;;3.23;;
7675;SDS011;3880;51.464;-2.566;2022-10-31T06:52:00;26.60;;;6.10;;
7675;SDS011;3880;51.464;-2.566;2022-10-31T06:54:30;19.83;;;4.60;;
7675;SDS011;3880;51.464;-2.566;2022-10-31T06:56:58;24.30;;;4.80;;
7675;SDS011;3880;51.464;-2.566;2022-10-31T06:59:26;16.73;;;3.73;;
7675;SDS011;3880;51.464;-2.566;2022-10-31T07:01:53;23.00;;;4.00;;
7675;SDS011;3880;51.464;-2.566;2022-10-31T07:04:20;20.83;;;4.33;;
7675;SDS011;3880;51.464;-2.566;2022-10-31T07:06:50;17.33;;;3.93;;
7675;SDS011;3880;51.464;-2.566;2022-10-31T07:09:16;33.47;;;5.13;;
7675;SDS011;3880;51.464;-2.566;2022-10-31T07:11:43;20.27;;;4.97;;
7675;SDS011;3880;51.464;-2.566;2022-10-31T07:14:10;22.17;;;4.50;;
7675;SDS011;3880;51.464;-2.566;2022-10-31T07:16:39;28.70;;;4.30;;
7675;SDS011;3880;51.464;-2.566;2022-10-31T07:19:06;18.50;;;4.23;;
7675;SDS011;3880;51.464;-2.566;2022-10-31T07:21:32;15.97;;;4.50;;
7675;SDS011;3880;51.464;-2.566;2022-10-31T07:23:59;22.73;;;4.73;;
7675;SDS011;3880;51.464;-2.566;2022-10-31T07:26:26;19.03;;;3.60;;
7675;SDS011;3880;51.464;-2.566;2022-10-31T07:28:53;19.83;;;3.60;;
7675;SDS011;3880;51.464;-2.566;2022-10-31T07:31:20;19.93;;;4.30;;
7675;SDS011;3880;51.464;-2.566;2022-10-31T07:33:49;21.93;;;3.43;;
7675;SDS011;3880;51.464;-2.566;2022-10-31T07:36:16;23.57;;;4.83;;
7675;SDS011;3880;51.464;-2.566;2022-10-31T07:38:43;15.60;;;3.93;;
7675;SDS011;3880;51.464;-2.566;2022-10-31T07:41:10;24.10;;;4.07;;
7675;SDS011;3880;51.464;-2.566;2022-10-31T07:43:37;24.83;;;3.83;;
7675;SDS011;3880;51.464;-2.566;2022-10-31T07:46:04;18.07;;;4.00;;
7675;SDS011;3880;51.464;-2.566;2022-10-31T07:48:31;17.43;;;3.50;;
7675;SDS011;3880;51.464;-2.566;2022-10-31T07:51:01;17.03;;;3.30;;
7675;SDS011;3880;51.464;-2.566;2022-10-31T07:53:28;18.57;;;3.77;;
7675;SDS011;3880;51.464;-2.566;2022-10-31T07:55:55;16.70;;;3.53;;
7675;SDS011;3880;51.464;-2.566;2022-10-31T07:58:22;19.07;;;4.43;;
7675;SDS011;3880;51.464;-2.566;2022-10-31T08:00:50;22.27;;;4.37;;
7675;SDS011;3880;51.464;-2.566;2022-10-31T08:03:18;26.70;;;5.03;;
7675;SDS011;3880;51.464;-2.566;2022-10-31T08:05:45;16.10;;;4.60;;
7675;SDS011;3880;51.464;-2.566;2022-10-31T08:08:14;31.77;;;4.23;;
7675;SDS011;3880;51.464;-2.566;2022-10-31T08:10:41;14.63;;;3.43;;
7675;SDS011;3880;51.464;-2.566;2022-10-31T08:13:09;20.93;;;4.60;;
7675;SDS011;3880;51.464;-2.566;2022-10-31T08:15:37;17.60;;;4.40;;
7675;SDS011;3880;51.464;-2.566;2022-10-31T08:18:06;16.07;;;4.00;;
7675;SDS011;3880;51.464;-2.566;2022-10-31T08:20:37;20.30;;;3.57;;
7675;SDS011;3880;51.464;-2.566;2022-10-31T08:23:04;26.40;;;4.83;;
7675;SDS011;3880;51.464;-2.566;2022-10-31T08:25:33;17.13;;;3.50;;
7675;SDS011;3880;51.464;-2.566;2022-10-31T08:28:01;17.97;;;3.53;;
7675;SDS011;3880;51.464;-2.566;2022-10-31T08:30:29;18.30;;;3.83;;
7675;SDS011;3880;51.464;-2.566;2022-10-31T08:33:01;20.77;;;5.27;;
7675;SDS011;3880;51.464;-2.566;2022-10-31T08:35:29;21.17;;;3.50;;
7675;SDS011;3880;51.464;-2.566;2022-10-31T08:37:58;19.83;;;4.83;;
7675;SDS011;3880;51.464;-2.566;2022-10-31T08:40:26;17.50;;;3.20;;
7675;SDS011;3880;51.464;-2.566;2022-10-31T08:42:58;14.77;;;3.43;;
7675;SDS011;3880;51.464;-2.566;2022-10-31T08:45:27;14.67;;;3.93;;
7675;SDS011;3880;51.464;-2.566;2022-10-31T08:47:58;19.30;;;3.67;;
7675;SDS011;3880;51.464;-2.566;2022-10-31T08:50:25;14.80;;;3.50;;
7675;SDS011;3880;51.464;-2.566;2022-10-31T08:52:53;18.17;;;4.07;;
7675;SDS011;3880;51.464;-2.566;2022-10-31T08:55:20;14.83;;;3.67;;
7675;SDS011;3880;51.464;-2.566;2022-10-31T08:57:47;13.70;;;3.27;;
7675;SDS011;3880;51.464;-2.566;2022-10-31T09:00:16;20.00;;;3.80;;
7675;SDS011;3880;51.464;-2.566;2022-10-31T09:02:43;23.40;;;3.60;;
7675;SDS011;3880;51.464;-2.566;2022-10-31T09:05:12;16.20;;;4.13;;
7675;SDS011;3880;51.464;-2.566;2022-10-31T09:07:39;14.00;;;3.67;;
7675;SDS011;3880;51.464;-2.566;2022-10-31T09:10:06;12.43;;;4.13;;
7675;SDS011;3880;51.464;-2.566;2022-10-31T09:12:33;18.33;;;3.83;;
7675;SDS011;3880;51.464;-2.566;2022-10-31T09:15:00;19.20;;;4.60;;
7675;SDS011;3880;51.464;-2.566;2022-10-31T09:17:29;17.77;;;4.30;;
7675;SDS011;3880;51.464;-2.566;2022-10-31T09:19:56;15.90;;;3.90;;
7675;SDS011;3880;51.464;-2.566;2022-10-31T09:22:23;13.43;;;4.07;;
7675;SDS011;3880;51.464;-2.566;2022-10-31T09:24:50;17.83;;;4.13;;
7675;SDS011;3880;51.464;-2.566;2022-10-31T09:27:16;23.33;;;4.23;;
7675;SDS011;3880;51.464;-2.566;2022-10-31T09:29:43;11.47;;;3.77;;
7675;SDS011;3880;51.464;-2.566;2022-10-31T09:32:10;14.30;;;3.57;;
7675;SDS011;3880;51.464;-2.566;2022-10-31T09:34:39;21.93;;;3.27;;
7675;SDS011;3880;51.464;-2.566;2022-10-31T09:37:06;15.60;;;4.27;;
7675;SDS011;3880;51.464;-2.566;2022-10-31T09:39:33;12.93;;;3.73;;
7675;SDS011;3880;51.464;-2.566;2022-10-31T09:42:09;17.63;;;4.20;;
7675;SDS011;3880;51.464;-2.566;2022-10-31T09:44:55;12.40;;;3.80;;
7675;SDS011;3880;51.464;-2.566;2022-10-31T09:47:28;17.70;;;3.60;;
7675;SDS011;3880;51.464;-2.566;2022-10-31T09:50:13;30.33;;;3.87;;
7675;SDS011;3880;51.464;-2.566;2022-10-31T09:52:46;13.47;;;3.77;;
7675;SDS011;3880;51.464;-2.566;2022-10-31T09:55:23;19.43;;;4.20;;
7675;SDS011;3880;51.464;-2.566;2022-10-31T09:57:56;14.60;;;2.97;;
7675;SDS011;3880;51.464;-2.566;2022-10-31T10:00:25;17.43;;;3.77;;
7675;SDS011;3880;51.464;-2.566;2022-10-31T10:02:53;16.80;;;3.33;;
7675;SDS011;3880;51.464;-2.566;2022-10-31T10:05:27;16.30;;;3.67;;
7675;SDS011;3880;51.464;-2.566;2022-10-31T10:07:59;19.83;;;3.70;;
7675;SDS011;3880;51.464;-2.566;2022-10-31T10:10:32;27.67;;;4.63;;
7675;SDS011;3880;51.464;-2.566;2022-10-31T10:13:15;14.10;;;3.97;;
7675;SDS011;3880;51.464;-2.566;2022-10-31T10:16:09;14.03;;;3.87;;
7675;SDS011;3880;51.464;-2.566;2022-10-31T10:18:53;13.30;;;4.23;;
7675;SDS011;3880;51.464;-2.566;2022-10-31T10:21:35;15.03;;;4.37;;
7675;SDS011;3880;51.464;-2.566;2022-10-31T10:24:14;17.77;;;3.33;;
7675;SDS011;3880;51.464;-2.566;2022-10-31T10:26:51;13.10;;;2.77;;
7675;SDS011;3880;51.464;-2.566;2022-10-31T10:29:27;15.30;;;3.70;;
7675;SDS011;3880;51.464;-2.566;2022-10-31T10:32:00;11.30;;;2.90;;
7675;SDS011;3880;51.464;-2.566;2022-10-31T10:34:31;10.00;;;3.07;;
7675;SDS011;3880;51.464;-2.566;2022-10-31T10:37:04;11.07;;;2.83;;
7675;SDS011;3880;51.464;-2.566;2022-10-31T10:39:41;14.67;;;4.17;;
7675;SDS011;3880;51.464;-2.566;2022-10-31T10:42:13;11.60;;;3.07;;
7675;SDS011;3880;51.464;-2.566;2022-10-31T10:44:59;12.73;;;2.83;;
7675;SDS011;3880;51.464;-2.566;2022-10-31T10:47:52;11.67;;;2.93;;
7675;SDS011;3880;51.464;-2.566;2022-10-31T10:50:33;14.30;;;3.10;;
7675;SDS011;3880;51.464;-2.566;2022-10-31T10:53:06;11.93;;;2.87;;
7675;SDS011;3880;51.464;-2.566;2022-10-31T10:55:48;12.13;;;3.57;;
7675;SDS011;3880;51.464;-2.566;2022-10-31T10:58:21;13.43;;;3.30;;
7675;SDS011;3880;51.464;-2.566;2022-10-31T11:00:54;15.87;;;2.90;;
7675;SDS011;3880;51.464;-2.566;2022-10-31T11:03:22;9.88;;;3.17;;
7675;SDS011;3880;51.464;-2.566;2022-10-31T11:05:50;8.88;;;3.05;;
7675;SDS011;3880;51.464;-2.566;2022-10-31T11:08:25;3.78;;;2.13;;
7675;SDS011;3880;51.464;-2.566;2022-10-31T11:11:00;12.90;;;2.40;;
7675;SDS011;3880;51.464;-2.566;2022-10-31T11:13:30;8.20;;;2.58;;
7675;SDS011;3880;51.464;-2.566;2022-10-31T11:15:59;11.05;;;2.55;;
7675;SDS011;3880;51.464;-2.566;2022-10-31T11:18:28;7.65;;;3.05;;
7675;SDS011;3880;51.464;-2.566;2022-10-31T11:20:57;12.52;;;2.75;;
7675;SDS011;3880;51.464;-2.566;2022-10-31T11:23:27;11.35;;;3.58;;
7675;SDS011;3880;51.464;-2.566;2022-10-31T11:25:55;12.68;;;2.90;;
7675;SDS011;3880;51.464;-2.566;2022-10-31T11:28:23;9.23;;;2.75;;
7675;SDS011;3880;51.464;-2.566;2022-10-31T11:30:51;7.03;;;2.85;;
7675;SDS011;3880;51.464;-2.566;2022-10-31T11:33:22;14.20;;;3.72;;
7675;SDS011;3880;51.464;-2.566;2022-10-31T11:35:53;14.27;;;3.00;;
7675;SDS011;3880;51.464;-2.566;2022-10-31T11:38:21;8.38;;;2.88;;
7675;SDS011;3880;51.464;-2.566;2022-10-31T11:40:55;7.90;;;2.95;;
7675;SDS011;3880;51.464;-2.566;2022-10-31T11:43:26;6.60;;;2.67;;
7675;SDS011;3880;51.464;-2.566;2022-10-31T11:45:53;7.80;;;2.70;;
7675;SDS011;3880;51.464;-2.566;2022-10-31T11:48:21;12.93;;;3.33;;
7675;SDS011;3880;51.464;-2.566;2022-10-31T11:50:51;9.73;;;3.17;;
7675;SDS011;3880;51.464;-2.566;2022-10-31T11:53:22;7.37;;;2.37;;
7675;SDS011;3880;51.464;-2.566;2022-10-31T11:56:02;7.90;;;2.87;;
7675;SDS011;3880;51.464;-2.566;2022-10-31T11:58:31;7.60;;;3.20;;
7675;SDS011;3880;51.464;-2.566;2022-10-31T12:00:58;13.37;;;3.07;;
7675;SDS011;3880;51.464;-2.566;2022-10-31T12:03:41;9.17;;;2.97;;
7675;SDS011;3880;51.464;-2.566;2022-10-31T12:06:13;12.47;;;2.77;;
7675;SDS011;3880;51.464;-2.566;2022-10-31T12:08:44;9.07;;;3.40;;
7675;SDS011;3880;51.464;-2.566;2022-10-31T12:11:17;6.87;;;2.83;;
7675;SDS011;3880;51.464;-2.566;2022-10-31T12:14:05;10.53;;;2.80;;
7675;SDS011;3880;51.464;-2.566;2022-10-31T12:16:45;8.97;;;3.40;;
7675;SDS011;3880;51.464;-2.566;2022-10-31T12:19:22;9.73;;;3.50;;
7675;SDS011;3880;51.464;-2.566;2022-10-31T12:22:02;11.90;;;3.53;;
7675;SDS011;3880;51.464;-2.566;2022-10-31T12:27:52;5.80;;;2.10;;
7675;SDS011;3880;51.464;-2.566;2022-10-31T12:30:32;11.43;;;2.65;;
7675;SDS011;3880;51.464;-2.566;2022-10-31T12:36:10;7.82;;;2.83;;
7675;SDS011;3880;51.464;-2.566;2022-10-31T12:39:01;7.35;;;2.90;;
7675;SDS011;3880;51.464;-2.566;2022-10-31T12:41:46;7.93;;;2.85;;
7675;SDS011;3880;51.464;-2.566;2022-10-31T12:50:30;7.35;;;1.73;;
7675;SDS011;3880;51.464;-2.566;2022-10-31T12:53:10;5.20;;;2.22;;
7675;SDS011;3880;51.464;-2.566;2022-10-31T12:55:50;5.20;;;2.58;;
7675;SDS011;3880;51.464;-2.566;2022-10-31T12:58:24;9.02;;;2.17;;
7675;SDS011;3880;51.464;-2.566;2022-10-31T13:00:58;9.13;;;2.78;;
7675;SDS011;3880;51.464;-2.566;2022-10-31T13:03:38;7.05;;;2.33;;
7675;SDS011;3880;51.464;-2.566;2022-10-31T13:06:25;4.22;;;2.10;;
7675;SDS011;3880;51.464;-2.566;2022-10-31T13:08:57;5.20;;;2.00;;
7675;SDS011;3880;51.464;-2.566;2022-10-31T13:11:28;6.70;;;2.53;;
7675;SDS011;3880;51.464;-2.566;2022-10-31T13:13:59;4.10;;;1.70;;
7675;SDS011;3880;51.464;-2.566;2022-10-31T13:16:33;3.40;;;1.73;;
7675;SDS011;3880;51.464;-2.566;2022-10-31T13:19:04;3.63;;;1.88;;
7675;SDS011;3880;51.464;-2.566;2022-10-31T13:21:41;6.57;;;2.30;;
7675;SDS011;3880;51.464;-2.566;2022-10-31T13:24:16;6.82;;;1.80;;
7675;SDS011;3880;51.464;-2.566;2022-10-31T13:26:50;5.75;;;2.42;;
7675;SDS011;3880;51.464;-2.566;2022-10-31T13:29:20;5.53;;;2.42;;
7675;SDS011;3880;51.464;-2.566;2022-10-31T13:31:50;6.55;;;2.30;;
7675;SDS011;3880;51.464;-2.566;2022-10-31T13:34:19;8.03;;;3.23;;
7675;SDS011;3880;51.464;-2.566;2022-10-31T13:36:55;5.67;;;2.17;;
7675;SDS011;3880;51.464;-2.566;2022-10-31T13:39:30;8.87;;;2.30;;
7675;SDS011;3880;51.464;-2.566;2022-10-31T13:42:10;4.03;;;2.17;;
7675;SDS011;3880;51.464;-2.566;2022-10-31T13:44:44;7.67;;;2.17;;
7675;SDS011;3880;51.464;-2.566;2022-10-31T13:47:20;7.73;;;2.50;;
7675;SDS011;3880;51.464;-2.566;2022-10-31T13:49:49;5.63;;;2.27;;
7675;SDS011;3880;51.464;-2.566;2022-10-31T13:52:24;8.23;;;2.67;;
7675;SDS011;3880;51.464;-2.566;2022-10-31T13:54:53;4.27;;;2.10;;
7675;SDS011;3880;51.464;-2.566;2022-10-31T13:57:26;6.20;;;2.43;;
7675;SDS011;3880;51.464;-2.566;2022-10-31T14:00:02;11.13;;;2.10;;
7675;SDS011;3880;51.464;-2.566;2022-10-31T14:02:33;6.77;;;2.10;;
7675;SDS011;3880;51.464;-2.566;2022-10-31T14:05:02;4.70;;;1.87;;
7675;SDS011;3880;51.464;-2.566;2022-10-31T14:07:33;8.03;;;2.80;;
7675;SDS011;3880;51.464;-2.566;2022-10-31T14:10:02;6.90;;;2.07;;
7675;SDS011;3880;51.464;-2.566;2022-10-31T14:12:31;8.30;;;2.20;;
7675;SDS011;3880;51.464;-2.566;2022-10-31T14:15:03;6.03;;;1.90;;
7675;SDS011;3880;51.464;-2.566;2022-10-31T14:17:44;3.03;;;1.90;;
7675;SDS011;3880;51.464;-2.566;2022-10-31T14:23:12;5.27;;;2.07;;
7675;SDS011;3880;51.464;-2.566;2022-10-31T14:25:52;8.33;;;2.40;;
7675;SDS011;3880;51.464;-2.566;2022-10-31T14:28:20;6.40;;;2.00;;
7675;SDS011;3880;51.464;-2.566;2022-10-31T14:30:57;8.23;;;2.47;;
7675;SDS011;3880;51.464;-2.566;2022-10-31T14:33:26;7.50;;;2.63;;
7675;SDS011;3880;51.464;-2.566;2022-10-31T14:35:56;6.60;;;2.20;;
7675;SDS011;3880;51.464;-2.566;2022-10-31T14:38:35;6.77;;;2.60;;
7675;SDS011;3880;51.464;-2.566;2022-10-31T14:41:20;6.87;;;2.23;;
7675;SDS011;3880;51.464;-2.566;2022-10-31T14:47:12;7.27;;;1.80;;
7675;SDS011;3880;51.464;-2.566;2022-10-31T14:49:55;5.50;;;2.10;;
7675;SDS011;3880;51.464;-2.566;2022-10-31T14:52:49;6.03;;;2.37;;
7675;SDS011;3880;51.464;-2.566;2022-10-31T14:55:19;9.87;;;2.23;;
7675;SDS011;3880;51.464;-2.566;2022-10-31T14:57:49;9.90;;;1.97;;
7675;SDS011;3880;51.464;-2.566;2022-10-31T15:00:19;7.20;;;1.93;;
7675;SDS011;3880;51.464;-2.566;2022-10-31T15:02:50;4.53;;;1.70;;
7675;SDS011;3880;51.464;-2.566;2022-10-31T15:05:25;8.73;;;2.70;;
7675;SDS011;3880;51.464;-2.566;2022-10-31T15:07:53;6.00;;;1.80;;
7675;SDS011;3880;51.464;-2.566;2022-10-31T15:10:24;6.97;;;2.03;;
7675;SDS011;3880;51.464;-2.566;2022-10-31T15:12:54;6.10;;;2.30;;
7675;SDS011;3880;51.464;-2.566;2022-10-31T15:15:22;6.57;;;2.43;;
7675;SDS011;3880;51.464;-2.566;2022-10-31T15:17:52;5.07;;;2.03;;
7675;SDS011;3880;51.464;-2.566;2022-10-31T15:20:22;7.13;;;2.20;;
7675;SDS011;3880;51.464;-2.566;2022-10-31T15:22:51;11.73;;;3.10;;
7675;SDS011;3880;51.464;-2.566;2022-10-31T15:25:21;8.27;;;2.53;;
7675;SDS011;3880;51.464;-2.566;2022-10-31T15:27:51;8.30;;;2.77;;
7675;SDS011;3880;51.464;-2.566;2022-10-31T15:30:20;6.00;;;2.20;;
7675;SDS011;3880;51.464;-2.566;2022-10-31T15:32:48;6.53;;;2.53;;
7675;SDS011;3880;51.464;-2.566;2022-10-31T15:35:20;7.00;;;1.93;;
7675;SDS011;3880;51.464;-2.566;2022-10-31T15:37:49;9.60;;;2.53;;
7675;SDS011;3880;51.464;-2.566;2022-10-31T15:40:19;7.57;;;1.90;;